createdAt,value
2019-06-07T00:00:40.752Z,12.12
2019-06-07T00:01:40.003Z,12.07
2019-06-07T00:02:40.066Z,12.12
2019-06-07T00:03:40.062Z,12.10
2019-06-07T00:04:40.093Z,12.07
2019-06-07T00:05:40.126Z,12.10
2019-06-07T00:06:40.153Z,12.14
2019-06-07T00:07:40.183Z,12.14
2019-06-07T00:08:40.267Z,12.23
2019-06-07T00:09:40.243Z,12.10
2019-06-07T00:10:40.462Z,12.07
2019-06-07T00:11:40.304Z,12.12
2019-06-07T00:12:40.356Z,12.09
2019-06-07T00:13:40.589Z,12.13
2019-06-07T00:14:40.416Z,12.27
2019-06-07T00:15:40.652Z,12.28
2019-06-07T00:16:43.683Z,12.23
2019-06-07T00:17:40.483Z,12.16
2019-06-07T00:18:40.514Z,12.17
2019-06-07T00:19:40.557Z,12.13
2019-06-07T00:20:40.574Z,12.19
2019-06-07T00:22:13.642Z,12.07
2019-06-07T00:22:40.634Z,12.12
2019-06-07T00:23:40.663Z,12.12
2019-06-07T00:24:40.694Z,12.28
2019-06-07T00:25:40.726Z,12.29
2019-06-07T00:26:57.120Z,12.21
2019-06-07T00:27:40.786Z,12.27
2019-06-07T00:28:40.814Z,12.28
2019-06-07T00:29:40.844Z,12.24
2019-06-07T00:30:51.206Z,12.20
2019-06-07T00:31:40.904Z,12.13
2019-06-07T00:32:40.935Z,12.09
2019-06-07T00:33:40.964Z,12.13
2019-06-07T00:34:40.996Z,12.12
2019-06-07T00:35:41.025Z,12.07
2019-06-07T00:36:41.055Z,12.13
2019-06-07T00:37:41.088Z,12.17
2019-06-07T00:38:41.115Z,12.13
2019-06-07T00:39:41.145Z,12.17
2019-06-07T00:40:41.177Z,12.05
2019-06-07T00:41:41.206Z,12.13
2019-06-07T00:42:41.236Z,12.10
2019-06-07T00:43:41.267Z,12.07
2019-06-07T00:44:41.296Z,12.19
2019-06-07T00:45:41.326Z,12.24
2019-06-07T00:46:41.357Z,12.32
2019-06-07T00:47:41.387Z,12.32
2019-06-07T00:48:41.416Z,12.29
2019-06-07T00:49:41.835Z,12.37
2019-06-07T00:50:41.477Z,12.52
2019-06-07T00:51:50.558Z,12.50
2019-06-07T00:53:13.777Z,12.39
2019-06-07T00:53:41.569Z,12.35
2019-06-07T00:54:41.599Z,12.37
2019-06-07T00:55:41.628Z,12.31
2019-06-07T00:56:41.656Z,12.34
2019-06-07T00:57:41.689Z,12.37
2019-06-07T00:58:41.719Z,12.34
2019-06-07T00:59:41.750Z,12.32
2019-06-07T01:00:41.779Z,12.35
2019-06-07T01:01:41.808Z,12.31
2019-06-07T01:02:41.840Z,12.34
2019-06-07T01:03:41.919Z,12.32
2019-06-07T01:04:41.899Z,12.29
2019-06-07T01:05:41.929Z,12.32
2019-06-07T01:06:41.960Z,12.27
2019-06-07T01:07:41.990Z,12.32
2019-06-07T01:08:42.026Z,12.37
2019-06-07T01:09:42.051Z,12.38
2019-06-07T01:10:52.963Z,12.39
2019-06-07T01:11:42.113Z,12.39
2019-06-07T01:12:42.140Z,12.35
2019-06-07T01:13:42.171Z,12.52
2019-06-07T01:14:42.202Z,12.57
2019-06-07T01:15:42.230Z,12.50
2019-06-07T01:16:56.567Z,12.53
2019-06-07T01:18:25.971Z,12.52
2019-06-07T01:18:46.455Z,12.50
2019-06-07T01:19:42.351Z,12.52
2019-06-07T01:20:42.383Z,12.64
2019-06-07T01:21:42.412Z,12.57
2019-06-07T01:22:42.442Z,12.71
2019-06-07T01:24:12.633Z,12.60
2019-06-07T01:24:42.504Z,12.64
2019-06-07T01:25:42.535Z,12.56
2019-06-07T01:26:42.566Z,12.52
2019-06-07T01:27:42.593Z,12.47
2019-06-07T01:28:42.623Z,12.56
2019-06-07T01:29:42.655Z,12.60
2019-06-07T01:30:42.685Z,12.54
2019-06-07T01:31:44.171Z,12.60
2019-06-07T01:32:42.770Z,12.46
2019-06-07T01:33:50.921Z,12.49
2019-06-07T01:34:43.009Z,12.53
2019-06-07T01:35:42.836Z,12.35
2019-06-07T01:36:42.865Z,12.39
2019-06-07T01:37:42.896Z,12.46
2019-06-07T01:38:42.926Z,12.54
2019-06-07T01:39:42.957Z,12.50
2019-06-07T01:40:42.986Z,12.46
2019-06-07T01:41:43.017Z,12.50
2019-06-07T01:42:43.047Z,12.47
2019-06-07T01:43:43.078Z,12.52
2019-06-07T01:44:43.108Z,12.54
2019-06-07T01:45:43.137Z,12.60
2019-06-07T01:46:43.169Z,12.52
2019-06-07T01:47:43.200Z,12.47
2019-06-07T01:48:49.497Z,12.35
2019-06-07T01:49:43.258Z,12.37
2019-06-07T01:50:43.291Z,12.38
2019-06-07T01:51:43.319Z,12.35
2019-06-07T01:52:43.497Z,12.39
2019-06-07T01:53:43.394Z,12.53
2019-06-07T01:54:56.609Z,12.53
2019-06-07T01:55:43.439Z,12.59
2019-06-07T01:56:43.475Z,12.60
2019-06-07T01:57:48.240Z,12.60
2019-06-07T01:58:43.533Z,12.65
2019-06-07T01:59:43.561Z,12.79
2019-06-07T02:00:44.378Z,12.72
2019-06-07T02:01:43.622Z,12.57
2019-06-07T02:02:43.652Z,12.74
2019-06-07T02:03:43.683Z,12.60
2019-06-07T02:04:43.710Z,12.72
2019-06-07T02:05:43.743Z,12.57
2019-06-07T02:06:43.777Z,12.60
2019-06-07T02:07:43.802Z,12.62
2019-06-07T02:08:43.833Z,12.60
2019-06-07T02:09:43.863Z,12.50
2019-06-07T02:10:43.895Z,12.50
2019-06-07T02:11:43.926Z,12.56
2019-06-07T02:12:43.955Z,12.62
2019-06-07T02:13:44.012Z,12.60
2019-06-07T02:14:44.077Z,12.52
2019-06-07T02:15:44.044Z,12.47
2019-06-07T02:16:44.187Z,12.53
2019-06-07T02:17:44.105Z,12.60
2019-06-07T02:19:01.062Z,12.52
2019-06-07T02:19:44.166Z,12.52
2019-06-07T02:20:44.196Z,12.47
2019-06-07T02:21:44.225Z,12.46
2019-06-07T02:22:44.257Z,12.50
2019-06-07T02:23:44.287Z,12.50
2019-06-07T02:24:44.319Z,12.46
2019-06-07T02:25:50.286Z,12.31
2019-06-07T02:26:44.380Z,12.35
2019-06-07T02:27:44.408Z,12.39
2019-06-07T02:28:45.763Z,12.50
2019-06-07T02:29:44.470Z,12.38
2019-06-07T02:30:58.289Z,12.50
2019-06-07T02:31:44.531Z,12.47
2019-06-07T02:32:44.561Z,12.34
2019-06-07T02:33:44.590Z,12.37
2019-06-07T02:34:44.621Z,12.37
2019-06-07T02:35:44.651Z,12.39
2019-06-07T02:36:44.682Z,12.32
2019-06-07T02:37:44.717Z,12.31
2019-06-07T02:38:44.743Z,12.24
2019-06-07T02:39:44.778Z,12.32
2019-06-07T02:40:44.806Z,12.27
2019-06-07T02:41:44.834Z,12.35
2019-06-07T02:42:44.873Z,12.42
2019-06-07T02:43:44.893Z,12.31
2019-06-07T02:44:44.921Z,12.24
2019-06-07T02:45:44.960Z,12.31
2019-06-07T02:46:49.503Z,12.37
2019-06-07T02:47:45.021Z,12.38
2019-06-07T02:48:45.044Z,12.31
2019-06-07T02:49:45.125Z,12.37
2019-06-07T02:50:45.105Z,12.21
2019-06-07T02:51:45.208Z,12.32
2019-06-07T02:52:45.165Z,12.17
2019-06-07T02:53:45.194Z,12.14
2019-06-07T02:54:45.225Z,11.96
2019-06-07T02:56:33.851Z,12.01
2019-06-07T02:56:57.229Z,12.07
2019-06-07T02:57:45.315Z,11.99
2019-06-07T02:58:45.346Z,12.04
2019-06-07T03:00:06.701Z,12.12
2019-06-07T03:01:05.992Z,12.05
2019-06-07T03:01:45.446Z,11.99
2019-06-07T03:02:45.473Z,11.99
2019-06-07T03:03:45.497Z,11.94
2019-06-07T03:04:45.527Z,11.96
2019-06-07T03:05:45.556Z,11.96
2019-06-07T03:06:45.675Z,11.82
2019-06-07T03:07:45.927Z,11.79
2019-06-07T03:08:45.645Z,11.79
2019-06-07T03:09:45.676Z,11.80
2019-06-07T03:10:45.708Z,11.95
2019-06-07T03:11:45.754Z,11.82
2019-06-07T03:12:45.766Z,11.90
2019-06-07T03:13:46.208Z,11.90
2019-06-07T03:14:45.868Z,11.86
2019-06-07T03:15:50.193Z,11.90
2019-06-07T03:16:45.886Z,11.90
2019-06-07T03:17:45.957Z,11.95
2019-06-07T03:18:45.947Z,11.95
2019-06-07T03:19:45.976Z,11.85
2019-06-07T03:21:02.830Z,11.82
2019-06-07T03:21:46.036Z,11.88
2019-06-07T03:22:46.066Z,11.85
2019-06-07T03:23:46.158Z,11.94
2019-06-07T03:24:46.126Z,11.94
2019-06-07T03:25:46.155Z,11.80
2019-06-07T03:27:31.686Z,11.79
2019-06-07T03:27:50.032Z,11.58
2019-06-07T03:29:48.840Z,11.28
2019-06-07T03:31:01.378Z,11.40
2019-06-07T03:31:48.898Z,11.49
2019-06-07T03:32:48.964Z,11.47
2019-06-07T03:33:48.962Z,11.46
2019-06-07T03:34:48.987Z,11.51
2019-06-07T03:35:49.074Z,11.46
2019-06-07T03:36:49.048Z,11.42
2019-06-07T03:37:49.076Z,11.46
2019-06-07T03:38:49.105Z,11.42
2019-06-07T03:39:49.136Z,11.37
2019-06-07T03:40:49.164Z,11.27
2019-06-07T03:42:05.280Z,11.33
2019-06-07T03:42:49.228Z,11.42
2019-06-07T03:43:49.254Z,11.40
2019-06-07T03:44:49.284Z,11.46
2019-06-07T03:45:49.314Z,11.42
2019-06-07T03:46:49.343Z,11.32
2019-06-07T03:47:49.373Z,11.44
2019-06-07T03:48:49.403Z,11.36
2019-06-07T03:49:49.433Z,11.44
2019-06-07T03:51:03.895Z,11.54
2019-06-07T03:51:49.492Z,11.40
2019-06-07T03:52:49.522Z,11.47
2019-06-07T03:53:49.552Z,11.46
2019-06-07T03:54:49.580Z,11.47
2019-06-07T03:55:49.641Z,11.44
2019-06-07T03:56:49.641Z,11.35
2019-06-07T03:58:50.613Z,11.40
2019-06-07T03:59:49.728Z,11.44
2019-06-07T04:00:49.837Z,11.42
2019-06-07T04:01:49.792Z,11.32
2019-06-07T04:02:49.826Z,11.42
2019-06-07T04:03:51.597Z,11.40
2019-06-07T04:04:49.883Z,11.47
2019-06-07T04:05:50.236Z,11.47
2019-06-07T04:06:49.951Z,11.58
2019-06-07T04:07:49.968Z,11.58
2019-06-07T04:08:49.996Z,11.55
2019-06-07T04:09:50.039Z,11.54
2019-06-07T04:10:59.842Z,11.64
2019-06-07T04:11:50.086Z,11.60
2019-06-07T04:12:50.116Z,11.64
2019-06-07T04:13:50.146Z,11.65
2019-06-07T04:14:50.174Z,11.85
2019-06-07T04:15:50.231Z,11.73
2019-06-07T04:16:50.236Z,11.75
2019-06-07T04:18:01.879Z,11.75
2019-06-07T04:18:50.295Z,11.73
2019-06-07T04:19:50.375Z,11.64
2019-06-07T04:20:50.353Z,11.73
2019-06-07T04:21:50.434Z,11.75
2019-06-07T04:22:50.412Z,11.67
2019-06-07T04:23:50.442Z,11.67
2019-06-07T04:24:50.473Z,11.61
2019-06-07T04:25:50.502Z,11.69
2019-06-07T04:26:50.531Z,11.76
2019-06-07T04:27:50.561Z,11.65
2019-06-07T04:33:59.827Z,12.10
2019-06-07T04:36:45.977Z,12.07
2019-06-07T04:37:33.463Z,12.19
2019-06-07T04:38:36.212Z,12.07
2019-06-07T04:39:35.451Z,12.23
2019-06-07T04:40:34.335Z,12.27
2019-06-07T04:41:33.667Z,12.23
2019-06-07T04:42:35.048Z,12.21
2019-06-07T04:43:33.516Z,12.14
2019-06-07T04:44:34.938Z,12.23
2019-06-07T04:45:40.253Z,12.27
2019-06-07T04:46:35.175Z,12.23
2019-06-07T04:47:33.882Z,12.20
2019-06-07T04:48:35.192Z,12.23
2019-06-07T04:49:37.271Z,12.20
2019-06-07T04:50:34.294Z,12.41
2019-06-07T04:51:34.009Z,12.38
2019-06-07T04:52:35.980Z,12.35
2019-06-07T04:53:35.248Z,12.39
2019-06-07T04:54:35.043Z,12.39
2019-06-07T04:55:34.083Z,12.39
2019-06-07T04:56:37.843Z,12.34
2019-06-07T04:57:34.857Z,12.45
2019-06-07T04:58:33.407Z,12.34
2019-06-07T05:00:05.539Z,12.38
2019-06-07T05:00:50.803Z,12.37
2019-06-07T05:01:34.869Z,12.34
2019-06-07T05:02:36.847Z,12.56
2019-06-07T05:03:38.167Z,12.52
2019-06-07T05:04:34.959Z,12.52
2019-06-07T05:05:34.545Z,12.53
2019-06-07T05:06:36.330Z,12.38
2019-06-07T05:12:07.713Z,12.59
2019-06-07T05:13:07.743Z,12.60
2019-06-07T05:14:07.774Z,12.79
2019-06-07T05:15:07.802Z,12.86
2019-06-07T05:16:07.842Z,12.82
2019-06-07T05:17:07.864Z,12.85
2019-06-07T05:18:07.894Z,13.00
2019-06-07T05:19:07.924Z,13.05
2019-06-07T05:20:07.957Z,12.96
2019-06-07T05:21:07.986Z,13.10
2019-06-07T05:22:08.016Z,13.07
2019-06-07T05:23:08.044Z,13.07
2019-06-07T05:24:50.692Z,13.17
2019-06-07T05:25:50.652Z,13.28
2019-06-07T05:26:50.685Z,13.23
2019-06-07T05:27:50.714Z,13.26
2019-06-07T05:28:50.767Z,13.38
2019-06-07T05:30:08.966Z,13.57
2019-06-07T05:31:03.930Z,13.59
2019-06-07T05:31:50.834Z,13.63
2019-06-07T05:32:50.869Z,13.66
2019-06-07T05:33:50.897Z,13.85
2019-06-07T05:34:50.927Z,13.88
2019-06-07T05:35:50.957Z,13.91
2019-06-07T05:37:10.607Z,13.89
2019-06-07T05:37:51.021Z,14.00
2019-06-07T05:40:08.681Z,14.24
2019-06-07T05:41:08.713Z,14.28
2019-06-07T05:42:08.746Z,14.27
2019-06-07T05:43:08.775Z,14.33
2019-06-07T05:44:12.864Z,14.36
2019-06-07T05:45:08.852Z,14.35
2019-06-07T05:46:08.867Z,14.32
2019-06-07T05:47:08.898Z,14.29
2019-06-07T05:48:08.930Z,14.35
2019-06-07T05:49:08.960Z,14.25
2019-06-07T05:50:38.058Z,14.27
2019-06-07T05:51:09.022Z,14.39
2019-06-07T05:52:09.053Z,14.29
2019-06-07T05:53:09.085Z,14.55
2019-06-07T05:54:09.115Z,14.50
2019-06-07T05:55:09.158Z,14.55
2019-06-07T05:56:09.223Z,14.62
2019-06-07T05:57:09.208Z,14.58
2019-06-07T05:58:09.242Z,14.68
2019-06-07T05:59:09.271Z,14.68
2019-06-07T06:00:09.382Z,14.75
2019-06-07T06:02:21.852Z,14.70
2019-06-07T06:03:09.398Z,14.89
2019-06-07T06:04:09.427Z,14.94
2019-06-07T06:05:09.459Z,14.96
2019-06-07T06:06:09.492Z,14.88
2019-06-07T06:07:09.522Z,15.03
2019-06-07T06:08:09.569Z,14.95
2019-06-07T06:09:13.683Z,15.09
2019-06-07T06:10:10.150Z,15.20
2019-06-07T06:11:09.649Z,15.31
2019-06-07T06:12:09.679Z,15.35
2019-06-07T06:13:09.732Z,15.34
2019-06-07T06:14:09.743Z,15.39
2019-06-07T06:15:09.775Z,15.39
2019-06-07T06:16:09.807Z,15.44
2019-06-07T06:17:09.863Z,15.49
2019-06-07T06:19:10.531Z,15.49
2019-06-07T06:20:10.187Z,15.53
2019-06-07T06:21:19.253Z,15.67
2019-06-07T06:22:11.314Z,15.67
2019-06-07T06:23:10.052Z,15.69
2019-06-07T06:24:10.084Z,15.84
2019-06-07T06:27:28.417Z,16.11
2019-06-07T06:28:12.758Z,16.12
2019-06-07T06:29:10.855Z,16.20
2019-06-07T06:30:10.264Z,16.34
2019-06-07T06:31:10.314Z,16.23
2019-06-07T06:33:27.098Z,16.38
2019-06-07T06:34:10.409Z,16.42
2019-06-07T06:35:10.639Z,16.53
2019-06-07T06:37:10.503Z,16.53
2019-06-07T06:39:10.544Z,16.34
2019-06-07T06:40:10.577Z,16.49
2019-06-07T06:41:15.847Z,16.50
2019-06-07T06:42:10.643Z,16.56
2019-06-07T06:43:10.676Z,16.60
2019-06-07T06:44:10.707Z,16.52
2019-06-07T06:45:10.762Z,16.52
2019-06-07T06:46:10.772Z,16.41
2019-06-07T06:47:10.808Z,16.35
2019-06-07T06:48:10.858Z,16.45
2019-06-07T06:49:10.870Z,16.34
2019-06-07T06:50:10.904Z,16.39
2019-06-07T06:51:10.938Z,16.46
2019-06-07T06:52:10.971Z,16.35
2019-06-07T06:53:11.007Z,16.53
2019-06-07T06:54:11.034Z,16.66
2019-06-07T06:55:11.067Z,16.67
2019-06-07T06:56:11.302Z,16.70
2019-06-07T06:57:19.587Z,16.79
2019-06-07T06:58:11.166Z,16.91
2019-06-07T06:59:37.524Z,16.94
2019-06-07T07:00:11.231Z,16.98
2019-06-07T07:01:11.264Z,16.94
2019-06-07T07:02:11.309Z,16.91
2019-06-07T07:04:13.419Z,17.14
2019-06-07T07:05:11.396Z,17.22
2019-06-07T07:06:25.206Z,17.31
2019-06-07T07:07:11.470Z,17.37
2019-06-07T07:08:11.496Z,17.38
2019-06-07T07:09:11.528Z,17.48
2019-06-07T07:10:11.574Z,17.51
2019-06-07T07:11:11.607Z,17.59
2019-06-07T07:12:14.802Z,17.64
2019-06-07T07:14:11.720Z,17.71
2019-06-07T07:15:11.729Z,17.77
2019-06-07T07:16:11.777Z,17.81
2019-06-07T07:17:11.795Z,17.71
2019-06-07T07:18:11.830Z,17.79
2019-06-07T07:19:11.862Z,17.90
2019-06-07T07:20:11.896Z,17.90
2019-06-07T07:21:11.930Z,17.97
2019-06-07T07:22:11.963Z,17.96
2019-06-07T07:23:11.998Z,17.97
2019-06-07T07:24:21.740Z,18.02
2019-06-07T07:25:12.063Z,17.93
2019-06-07T07:26:12.099Z,17.93
2019-06-07T07:27:12.131Z,17.92
2019-06-07T07:28:12.164Z,18.10
2019-06-07T07:29:12.198Z,18.18
2019-06-07T07:30:37.616Z,18.26
2019-06-07T07:31:12.289Z,18.29
2019-06-07T07:32:12.301Z,18.39
2019-06-07T07:33:12.356Z,18.44
2019-06-07T07:34:32.087Z,18.47
2019-06-07T07:35:12.402Z,18.54
2019-06-07T07:42:16.189Z,18.69
2019-06-07T07:42:51.824Z,18.82
2019-06-07T07:43:59.390Z,18.80
2019-06-07T07:44:53.282Z,18.76
2019-06-07T07:47:58.380Z,18.69
2019-06-07T07:48:46.025Z,18.76
2019-06-07T07:49:42.160Z,18.78
2019-06-07T07:50:42.159Z,18.76
2019-06-07T07:51:42.194Z,18.72
2019-06-07T07:52:42.265Z,18.87
2019-06-07T07:53:52.141Z,18.94
2019-06-07T07:54:42.297Z,18.92
2019-06-07T07:55:42.532Z,18.70
2019-06-07T07:56:42.363Z,18.72
2019-06-07T07:57:42.410Z,18.69
2019-06-07T07:58:42.487Z,18.73
2019-06-07T08:00:00.455Z,18.88
2019-06-07T08:00:53.916Z,18.92
2019-06-07T08:01:48.463Z,18.75
2019-06-07T08:02:42.573Z,18.88
2019-06-07T08:05:11.970Z,19.14
2019-06-07T08:05:40.000Z,19.33
2019-06-07T08:06:25.221Z,19.50
2019-06-07T08:07:25.255Z,19.44
2019-06-07T08:08:25.291Z,19.50
2019-06-07T08:09:25.326Z,19.47
2019-06-07T08:10:25.361Z,19.47
2019-06-07T08:11:25.396Z,19.68
2019-06-07T08:12:25.429Z,19.73
2019-06-07T08:13:27.383Z,19.92
2019-06-07T08:14:25.500Z,20.14
2019-06-07T08:16:18.822Z,20.33
2019-06-07T08:17:18.204Z,20.35
2019-06-07T08:18:18.239Z,20.21
2019-06-07T08:20:15.861Z,19.95
2019-06-07T08:21:25.779Z,19.74
2019-06-07T08:22:15.934Z,19.74
2019-06-07T08:23:15.967Z,19.83
2019-06-07T08:24:16.004Z,19.95
2019-06-07T08:25:16.064Z,19.96
2019-06-07T08:26:16.141Z,19.83
2019-06-07T08:27:25.714Z,20.01
2019-06-07T08:28:16.147Z,20.13
2019-06-07T08:29:16.179Z,20.13
2019-06-07T08:30:46.984Z,20.31
2019-06-07T08:31:16.452Z,20.39
2019-06-07T08:32:16.517Z,20.39
2019-06-07T08:33:26.080Z,20.64
2019-06-07T08:34:16.355Z,20.77
2019-06-07T08:36:02.612Z,20.88
2019-06-07T08:36:25.206Z,20.76
2019-06-07T08:37:16.463Z,20.79
2019-06-07T08:38:26.498Z,20.88
2019-06-07T08:39:16.535Z,21.04
2019-06-07T08:40:16.570Z,20.97
2019-06-07T08:41:16.640Z,20.87
2019-06-07T08:42:21.965Z,20.99
2019-06-07T08:43:20.684Z,21.09
2019-06-07T08:44:23.709Z,20.97
2019-06-07T08:45:16.754Z,20.88
2019-06-07T08:46:16.785Z,20.92
2019-06-07T08:47:20.863Z,20.89
2019-06-07T08:48:27.577Z,20.84
2019-06-07T08:49:16.903Z,20.85
2019-06-07T08:50:16.928Z,20.74
2019-06-07T08:51:16.966Z,20.64
2019-06-07T08:52:17.006Z,20.61
2019-06-07T08:53:17.038Z,20.77
2019-06-07T08:54:22.658Z,21.13
2019-06-07T08:55:17.111Z,21.16
2019-06-07T08:57:21.721Z,21.27
2019-06-07T08:59:17.256Z,21.59
2019-06-07T09:00:42.957Z,21.47
2019-06-07T09:01:17.328Z,21.35
2019-06-07T09:02:23.877Z,21.49
2019-06-07T09:03:17.436Z,21.64
2019-06-07T09:04:17.439Z,21.92
2019-06-07T09:05:17.476Z,22.09
2019-06-07T09:07:01.214Z,21.80
2019-06-07T09:07:19.743Z,21.59
2019-06-07T09:08:29.996Z,21.80
2019-06-07T09:09:17.622Z,21.96
2019-06-07T09:10:17.658Z,22.15
2019-06-07T09:11:17.696Z,22.15
2019-06-07T09:12:17.733Z,22.20
2019-06-07T09:13:17.835Z,22.25
2019-06-07T09:14:17.805Z,22.42
2019-06-07T09:15:23.268Z,22.40
2019-06-07T09:16:17.880Z,22.43
2019-06-07T09:17:17.995Z,22.39
2019-06-07T09:18:41.026Z,22.10
2019-06-07T09:19:17.995Z,22.22
2019-06-07T09:20:35.542Z,22.43
2019-06-07T09:21:18.072Z,22.35
2019-06-07T09:22:18.102Z,22.52
2019-06-07T09:23:18.190Z,22.15
2019-06-07T09:24:18.177Z,22.21
2019-06-07T09:25:21.795Z,22.47
2019-06-07T09:26:18.996Z,22.46
2019-06-07T09:27:18.288Z,22.47
2019-06-07T09:28:20.124Z,22.73
2019-06-07T09:29:18.364Z,22.83
2019-06-07T09:30:19.074Z,22.88
2019-06-07T09:31:18.461Z,22.98
2019-06-07T09:32:18.782Z,22.82
2019-06-07T09:33:18.513Z,22.65
2019-06-07T09:34:18.574Z,22.73
2019-06-07T09:35:18.587Z,22.73
2019-06-07T09:38:25.471Z,22.98
2019-06-07T09:39:18.739Z,23.15
2019-06-07T09:40:26.963Z,23.17
2019-06-07T09:41:18.816Z,23.02
2019-06-07T09:42:18.855Z,23.00
2019-06-07T09:43:59.573Z,23.12
2019-06-07T09:44:25.852Z,23.13
2019-06-07T09:45:18.989Z,23.13
2019-06-07T09:46:19.003Z,22.94
2019-06-07T09:47:31.339Z,23.10
2019-06-07T09:49:01.275Z,23.28
2019-06-07T09:49:31.383Z,23.15
2019-06-07T09:50:19.157Z,23.23
2019-06-07T09:51:21.832Z,23.39
2019-06-07T09:53:22.953Z,23.63
2019-06-07T09:55:24.423Z,23.51
2019-06-07T09:56:19.434Z,23.32
2019-06-07T09:57:19.446Z,23.31
2019-06-07T09:59:19.616Z,23.75
2019-06-07T10:00:40.209Z,23.50
2019-06-07T10:01:22.211Z,23.61
2019-06-07T10:02:19.687Z,23.70
2019-06-07T10:03:22.409Z,23.68
2019-06-07T10:04:30.694Z,23.72
2019-06-07T10:05:19.732Z,23.79
2019-06-07T10:06:19.847Z,23.78
2019-06-07T10:07:31.242Z,23.78
2019-06-07T10:09:31.683Z,23.85
2019-06-07T10:10:08.614Z,24.06
2019-06-07T10:11:19.981Z,24.12
2019-06-07T10:14:20.086Z,24.13
2019-06-07T10:15:20.127Z,24.21
2019-06-07T10:16:20.165Z,24.21
2019-06-07T10:17:20.189Z,24.46
2019-06-07T10:18:20.227Z,24.40
2019-06-07T10:19:20.271Z,24.61
2019-06-07T10:20:20.355Z,24.57
2019-06-07T10:21:20.349Z,24.62
2019-06-07T10:22:20.382Z,24.53
2019-06-07T10:23:20.425Z,24.57
2019-06-07T10:24:20.460Z,24.27
2019-06-07T10:25:20.525Z,24.46
2019-06-07T10:26:20.943Z,24.69
2019-06-07T10:27:20.578Z,24.90
2019-06-07T10:28:20.619Z,24.84
2019-06-07T10:29:20.658Z,24.68
2019-06-07T10:30:20.700Z,24.83
2019-06-07T10:31:20.733Z,25.10
2019-06-07T10:32:20.775Z,25.39
2019-06-07T10:33:20.814Z,25.46
2019-06-07T10:34:20.852Z,25.46
2019-06-07T10:35:20.891Z,25.52
2019-06-07T10:36:20.940Z,25.39
2019-06-07T10:37:20.972Z,25.55
2019-06-07T10:38:21.008Z,26.01
2019-06-07T10:39:21.047Z,26.36
2019-06-07T10:40:21.089Z,26.30
2019-06-07T10:41:23.774Z,26.92
2019-06-07T10:42:21.167Z,27.00
2019-06-07T10:43:21.613Z,27.44
2019-06-07T10:44:21.249Z,27.84
2019-06-07T10:46:03.845Z,28.48
2019-06-07T10:47:04.058Z,28.48
2019-06-07T10:48:03.928Z,29.09
2019-06-07T10:49:03.970Z,29.16
2019-06-07T10:50:04.223Z,29.11
2019-06-07T10:51:04.255Z,29.58
2019-06-07T10:52:08.533Z,30.27
2019-06-07T10:53:04.347Z,31.14
2019-06-07T10:54:19.179Z,31.12
2019-06-07T10:55:04.554Z,31.06
2019-06-07T10:56:04.892Z,30.17
2019-06-07T10:57:11.853Z,30.22
2019-06-07T10:58:04.719Z,30.15
2019-06-07T10:59:05.228Z,30.13
2019-06-07T11:01:05.233Z,30.73
2019-06-07T11:02:05.722Z,31.19
2019-06-07T11:03:05.939Z,31.93
2019-06-07T11:04:05.754Z,32.66
2019-06-07T11:05:05.833Z,32.26
2019-06-07T11:06:05.742Z,32.56
2019-06-07T11:07:06.297Z,32.57
2019-06-07T11:08:05.975Z,32.50
2019-06-07T11:09:47.458Z,31.50
2019-06-07T11:10:47.505Z,32.25
2019-06-07T11:11:50.178Z,31.81
2019-06-07T11:12:50.227Z,32.41
2019-06-07T11:13:47.655Z,33.07
2019-06-07T11:14:47.704Z,33.50
2019-06-07T11:15:47.753Z,34.13
2019-06-07T11:16:47.803Z,34.00
2019-06-07T11:17:47.860Z,33.91
2019-06-07T11:18:47.903Z,33.01
2019-06-07T11:19:47.955Z,33.11
2019-06-07T11:20:48.003Z,33.37
2019-06-07T11:21:48.054Z,33.44
2019-06-07T11:22:48.104Z,33.07
2019-06-07T11:23:48.178Z,33.31
2019-06-07T11:24:48.205Z,33.97
2019-06-07T11:25:48.257Z,33.37
2019-06-07T11:26:48.333Z,33.16
2019-06-07T11:27:50.984Z,33.26
2019-06-07T11:28:48.413Z,34.00
2019-06-07T11:29:48.461Z,34.00
2019-06-07T11:30:51.226Z,33.53
2019-06-07T11:32:48.616Z,32.96
2019-06-07T11:33:48.669Z,33.28
2019-06-07T11:36:51.025Z,33.61
2019-06-07T11:39:48.983Z,34.43
2019-06-07T11:40:49.031Z,34.47
2019-06-07T11:41:49.085Z,34.62
2019-06-07T11:46:49.346Z,34.52
2019-06-07T11:47:49.498Z,34.40
2019-06-07T11:49:49.528Z,33.91
2019-06-07T11:50:49.782Z,34.24
2019-06-07T11:51:49.632Z,34.19
2019-06-07T11:52:49.967Z,34.06
2019-06-07T11:53:49.743Z,34.69
2019-06-07T11:55:49.843Z,34.15
2019-06-07T11:57:51.064Z,34.19
2019-06-07T11:58:50.605Z,34.64
2019-06-07T11:59:50.053Z,34.78
2019-06-07T12:00:50.310Z,34.69
2019-06-07T12:01:50.133Z,35.09
2019-06-07T12:02:50.187Z,35.10
2019-06-07T12:03:50.239Z,34.54
2019-06-07T12:04:50.291Z,34.12
2019-06-07T12:05:50.573Z,33.00
2019-06-07T12:06:51.030Z,33.12
2019-06-07T12:08:50.522Z,32.70
2019-06-07T12:10:50.606Z,33.42
2019-06-07T12:11:50.659Z,33.65
2019-06-07T12:12:50.737Z,33.41
2019-06-07T12:13:50.767Z,33.32
2019-06-07T12:14:50.815Z,33.04
2019-06-07T12:15:50.935Z,34.02
2019-06-07T12:16:50.920Z,33.45
2019-06-07T12:17:50.972Z,33.65
2019-06-07T12:18:51.026Z,33.39
2019-06-07T12:19:51.077Z,34.22
2019-06-07T12:20:51.129Z,34.56
2019-06-07T12:21:51.181Z,35.25
2019-06-07T12:23:54.026Z,35.58
2019-06-07T12:24:53.904Z,34.73
2019-06-07T12:25:53.957Z,33.16
2019-06-07T12:26:54.008Z,32.59
2019-06-07T12:27:54.062Z,32.79
2019-06-07T12:28:54.113Z,32.97
2019-06-07T12:29:54.168Z,32.60
2019-06-07T12:30:55.226Z,33.34
2019-06-07T12:31:54.267Z,33.87
2019-06-07T12:32:54.317Z,33.34
2019-06-07T12:33:54.370Z,32.74
2019-06-07T12:34:54.420Z,32.96
2019-06-07T12:35:54.472Z,33.82
2019-06-07T12:36:54.525Z,33.81
2019-06-07T12:37:54.573Z,34.21
2019-06-07T12:38:54.627Z,33.79
2019-06-07T12:39:54.679Z,34.43
2019-06-07T12:40:57.950Z,34.66
2019-06-07T12:41:54.781Z,35.29
2019-06-07T12:42:54.831Z,35.66
2019-06-07T12:43:54.883Z,34.94
2019-06-07T12:44:54.933Z,34.24
2019-06-07T12:45:54.986Z,34.78
2019-06-07T12:46:55.036Z,34.78
2019-06-07T12:47:55.090Z,34.21
2019-06-07T12:48:55.139Z,33.93
2019-06-07T12:49:55.197Z,33.76
2019-06-07T12:50:55.245Z,34.25
2019-06-07T12:51:55.294Z,34.66
2019-06-07T12:54:03.028Z,34.77
2019-06-07T12:55:03.079Z,33.73
2019-06-07T12:56:03.131Z,34.27
2019-06-07T12:57:03.181Z,34.75
2019-06-07T12:58:03.240Z,34.44
2019-06-07T12:59:03.284Z,34.06
2019-06-07T13:00:03.352Z,33.86
2019-06-07T13:01:03.390Z,34.24
2019-06-07T13:02:03.441Z,33.63
2019-06-07T13:03:03.496Z,33.78
2019-06-07T13:04:03.542Z,34.42
2019-06-07T13:05:04.687Z,34.06
2019-06-07T13:06:03.645Z,34.91
2019-06-07T13:07:03.700Z,35.85
2019-06-07T13:08:03.749Z,35.40
2019-06-07T13:09:03.804Z,34.80
2019-06-07T13:10:03.853Z,35.94
2019-06-07T13:11:14.883Z,35.82
2019-06-07T13:13:04.005Z,36.00
2019-06-07T13:14:04.061Z,37.00
2019-06-07T13:15:04.108Z,37.78
2019-06-07T13:16:04.215Z,36.46
2019-06-07T13:17:04.212Z,35.99
2019-06-07T13:18:04.261Z,36.90
2019-06-07T13:19:04.316Z,37.25
2019-06-07T13:20:04.369Z,37.17
2019-06-07T13:21:04.416Z,36.83
2019-06-07T13:22:04.536Z,36.87
2019-06-07T13:23:07.142Z,37.10
2019-06-07T13:24:04.568Z,36.54
2019-06-07T13:25:04.630Z,37.00
2019-06-07T13:26:04.671Z,37.70
2019-06-07T13:27:04.720Z,38.38
2019-06-07T13:28:04.773Z,38.98
2019-06-07T13:29:04.825Z,39.73
2019-06-07T13:30:09.568Z,39.09
2019-06-07T13:31:04.929Z,39.55
2019-06-07T13:32:04.978Z,39.40
2019-06-07T13:33:05.030Z,38.47
2019-06-07T13:34:05.083Z,38.22
2019-06-07T13:35:05.137Z,37.74
2019-06-07T13:36:05.196Z,38.18
2019-06-07T13:37:05.253Z,36.62
2019-06-07T13:38:05.287Z,36.00
2019-06-07T13:39:05.347Z,35.92
2019-06-07T13:40:05.401Z,35.26
2019-06-07T13:41:05.440Z,34.80
2019-06-07T13:42:05.528Z,33.59
2019-06-07T13:43:05.541Z,33.22
2019-06-07T13:44:05.593Z,33.34
2019-06-07T13:45:05.663Z,33.26
2019-06-07T13:46:05.917Z,33.01
2019-06-07T13:47:05.765Z,32.93
2019-06-07T13:48:05.822Z,33.19
2019-06-07T13:49:05.865Z,33.38
2019-06-07T13:50:05.912Z,33.82
2019-06-07T13:51:05.936Z,33.82
2019-06-07T13:52:05.986Z,34.92
2019-06-07T13:53:06.035Z,36.35
2019-06-07T13:54:06.082Z,37.59
2019-06-07T13:55:06.130Z,37.88
2019-06-07T13:56:06.178Z,37.31
2019-06-07T13:57:06.226Z,36.85